createdAt,value
2019-02-04T00:02:20.728Z,71.72
2019-02-04T00:05:10.245Z,71.43
2019-02-04T00:08:00.054Z,71.64
2019-02-04T00:10:50.090Z,71.72
2019-02-04T00:13:40.109Z,71.78
2019-02-04T00:16:40.365Z,71.40
2019-02-04T00:19:21.739Z,71.74
2019-02-04T00:22:11.638Z,71.72
2019-02-04T00:25:01.913Z,71.66
2019-02-04T00:27:51.998Z,71.81
2019-02-04T00:30:41.676Z,71.82
2019-02-04T00:33:31.072Z,71.81
2019-02-04T00:36:21.045Z,71.74
2019-02-04T00:39:11.447Z,71.75
2019-02-04T00:42:02.062Z,71.85
2019-02-04T00:44:52.092Z,71.80
2019-02-04T00:47:42.885Z,71.74
2019-02-04T00:50:32.891Z,71.72
2019-02-04T00:53:22.925Z,71.67
2019-02-04T00:56:12.981Z,71.59
2019-02-04T00:59:02.884Z,71.75
2019-02-04T01:01:52.802Z,71.61
2019-02-04T01:04:42.359Z,71.55
2019-02-04T01:07:32.538Z,71.56
2019-02-04T01:10:25.406Z,71.57
2019-02-04T01:13:15.706Z,71.70
2019-02-04T01:16:06.602Z,71.73
2019-02-04T01:18:56.399Z,71.59
2019-02-04T01:21:46.241Z,71.68
2019-02-04T01:24:35.730Z,71.60
2019-02-04T01:27:25.337Z,71.66
2019-02-04T01:30:16.687Z,71.60
2019-02-04T01:33:06.945Z,71.64
2019-02-04T01:35:57.201Z,71.78
2019-02-04T01:38:47.785Z,71.67
2019-02-04T01:41:38.063Z,71.75
2019-02-04T01:44:27.598Z,71.96
2019-02-04T01:47:17.937Z,72.17
2019-02-04T01:50:09.344Z,72.25
2019-02-04T01:52:59.342Z,72.24
2019-02-04T01:55:49.126Z,72.31
2019-02-04T01:58:39.211Z,72.33
2019-02-04T02:01:28.996Z,72.15
2019-02-04T02:04:19.031Z,72.18
2019-02-04T02:07:09.631Z,72.30
2019-02-04T02:09:59.539Z,72.24
2019-02-04T02:12:50.324Z,71.87
2019-02-04T02:15:40.470Z,71.94
2019-02-04T02:18:30.542Z,71.81
2019-02-04T02:21:20.690Z,71.83
2019-02-04T02:24:10.442Z,71.62
2019-02-04T02:27:00.147Z,71.76
2019-02-04T02:29:50.209Z,71.57
2019-02-04T02:32:40.095Z,71.40
2019-02-04T02:35:29.588Z,71.47
2019-02-04T02:38:19.530Z,71.34
2019-02-04T02:41:09.554Z,71.20
2019-02-04T02:43:59.718Z,71.13
2019-02-04T02:46:49.115Z,71.17
2019-02-04T02:49:38.939Z,71.03
2019-02-04T02:52:29.179Z,70.88
2019-02-04T02:55:19.034Z,70.72
2019-02-04T02:58:09.249Z,71.05
2019-02-04T03:00:59.239Z,71.03
2019-02-04T03:03:49.337Z,70.97
2019-02-04T03:06:39.402Z,71.15
2019-02-04T03:09:29.091Z,70.95
2019-02-04T03:12:18.917Z,71.03
2019-02-04T03:15:11.124Z,71.17
2019-02-04T03:18:00.945Z,71.19
2019-02-04T03:20:50.825Z,71.09
2019-02-04T03:23:40.798Z,71.15
2019-02-04T03:26:30.591Z,71.25
2019-02-04T03:29:20.548Z,71.30
2019-02-04T03:32:10.490Z,71.23
2019-02-04T03:35:00.680Z,71.59
2019-02-04T03:37:52.291Z,71.46
2019-02-04T03:40:42.585Z,71.57
2019-02-04T03:43:33.495Z,71.57
2019-02-04T03:46:24.084Z,71.58
2019-02-04T03:49:14.201Z,71.33
2019-02-04T03:52:04.265Z,71.46
2019-02-04T03:54:54.574Z,71.31
2019-02-04T03:57:46.399Z,71.38
2019-02-04T04:00:37.592Z,71.30
2019-02-04T04:03:28.033Z,71.23
2019-02-04T04:06:18.375Z,71.34
2019-02-04T04:09:08.595Z,71.29
2019-02-04T04:11:58.166Z,71.22
2019-02-04T04:14:48.080Z,71.18
2019-02-04T04:17:38.281Z,71.17
2019-02-04T04:20:28.505Z,71.27
2019-02-04T04:23:19.039Z,71.60
2019-02-04T04:26:08.973Z,71.48
2019-02-04T04:28:58.756Z,71.24
2019-02-04T04:31:48.554Z,71.55
2019-02-04T04:34:38.432Z,71.65
2019-02-04T04:37:28.185Z,71.65
2019-02-04T04:40:18.923Z,71.78
2019-02-04T04:43:08.788Z,71.77
2019-02-04T04:45:58.506Z,71.88
2019-02-04T04:48:48.196Z,71.60
2019-02-04T04:51:38.117Z,71.58
2019-02-04T04:54:28.421Z,71.39
2019-02-04T04:57:18.313Z,71.52
2019-02-04T05:00:12.502Z,71.19
2019-02-04T05:03:02.870Z,71.37
2019-02-04T05:05:52.728Z,71.07
2019-02-04T05:08:42.839Z,71.13
2019-02-04T05:11:32.775Z,71.04
2019-02-04T05:14:22.739Z,71.02
2019-02-04T05:17:12.500Z,71.08
2019-02-04T05:20:02.385Z,71.08
2019-02-04T05:22:52.329Z,70.94
2019-02-04T05:25:42.166Z,70.90
2019-02-04T05:28:32.089Z,70.87
2019-02-04T05:31:21.901Z,70.73
2019-02-04T05:34:12.124Z,70.97
2019-02-04T05:37:01.917Z,71.18
2019-02-04T05:39:52.073Z,71.22
2019-02-04T05:42:41.876Z,71.40
2019-02-04T05:45:31.369Z,71.52
2019-02-04T05:48:21.447Z,71.57
2019-02-04T05:51:11.892Z,71.55
2019-02-04T05:54:01.839Z,71.42
2019-02-04T05:56:52.008Z,71.60
2019-02-04T05:59:42.251Z,71.52
2019-02-04T06:02:32.046Z,71.37
2019-02-04T06:05:22.171Z,71.25
2019-02-04T06:08:11.972Z,71.25
2019-02-04T06:11:01.914Z,71.25
2019-02-04T06:13:52.075Z,71.37
2019-02-04T06:16:41.806Z,71.28
2019-02-04T06:19:31.517Z,71.38
2019-02-04T06:22:21.561Z,71.44
2019-02-04T06:25:11.683Z,71.54
2019-02-04T06:28:01.568Z,71.63
2019-02-04T06:30:51.439Z,71.62
2019-02-04T06:33:41.195Z,71.56
2019-02-04T06:36:31.063Z,71.62
2019-02-04T06:39:20.957Z,71.46
2019-02-04T06:42:10.711Z,71.57
2019-02-04T06:45:01.059Z,71.73
2019-02-04T06:47:51.218Z,71.76
2019-02-04T06:50:41.029Z,71.75
2019-02-04T06:53:30.835Z,71.67
2019-02-04T06:56:20.653Z,71.62
2019-02-04T06:59:10.242Z,71.65
2019-02-04T07:02:00.165Z,71.65
2019-02-04T07:04:50.404Z,71.59
2019-02-04T07:07:40.579Z,71.69
2019-02-04T07:10:30.903Z,71.57
2019-02-04T07:13:20.702Z,71.73
2019-02-04T07:16:10.749Z,71.70
2019-02-04T07:19:00.929Z,71.70
2019-02-04T07:21:51.729Z,71.56
2019-02-04T07:24:43.071Z,71.83
2019-02-04T07:27:32.644Z,72.40
2019-02-04T07:30:27.454Z,72.96
2019-02-04T07:33:17.821Z,73.54
2019-02-04T07:36:08.003Z,73.20
2019-02-04T07:38:58.188Z,73.02
2019-02-04T07:41:48.400Z,73.02
2019-02-04T07:44:38.428Z,71.15
2019-02-04T07:47:28.052Z,71.61
2019-02-04T07:50:18.473Z,69.72
2019-02-04T07:53:08.538Z,69.20
2019-02-04T07:55:58.126Z,69.24
2019-02-04T07:58:48.203Z,69.16
2019-02-04T08:01:38.686Z,69.62
2019-02-04T08:04:29.456Z,69.82
2019-02-04T08:07:19.515Z,69.29
2019-02-04T08:10:10.601Z,69.73
2019-02-04T08:13:01.862Z,69.63
2019-02-04T08:15:51.751Z,70.09
2019-02-04T08:18:41.754Z,70.43
2019-02-04T08:21:31.759Z,70.76
2019-02-04T08:24:21.562Z,71.74
2019-02-04T08:27:12.063Z,70.80
2019-02-04T08:30:02.292Z,70.17
2019-02-04T08:32:52.540Z,69.25
2019-02-04T08:35:42.397Z,68.52
2019-02-04T08:38:32.608Z,66.93
2019-02-04T08:41:22.741Z,67.63
2019-02-04T08:44:12.660Z,66.43
2019-02-04T08:47:03.009Z,66.69
2019-02-04T08:49:58.506Z,66.88
2019-02-04T08:52:45.012Z,67.27
2019-02-04T08:55:35.197Z,65.90
2019-02-04T08:58:25.370Z,66.40
2019-02-04T09:01:15.028Z,65.44
2019-02-04T09:04:05.375Z,64.51
2019-02-04T09:06:54.972Z,64.41
2019-02-04T09:09:44.244Z,64.66
2019-02-04T09:12:34.074Z,65.04
2019-02-04T09:15:24.171Z,65.70
2019-02-04T09:18:15.902Z,65.44
2019-02-04T09:21:06.095Z,64.14
2019-02-04T09:23:55.900Z,64.30
2019-02-04T09:26:46.000Z,62.89
2019-02-04T09:29:36.153Z,61.67
2019-02-04T09:32:26.592Z,60.75
2019-02-04T09:35:18.101Z,58.24
2019-02-04T09:38:08.066Z,55.51
2019-02-04T09:40:57.748Z,53.65
2019-02-04T09:43:47.567Z,55.72
2019-02-04T09:46:38.203Z,57.07
2019-02-04T09:49:28.352Z,56.39
2019-02-04T09:52:19.016Z,55.68
2019-02-04T09:55:14.939Z,50.53
2019-02-04T09:58:05.584Z,48.32
2019-02-04T10:00:55.384Z,50.54
2019-02-04T10:03:45.482Z,50.38
2019-02-04T10:06:35.189Z,49.87
2019-02-04T10:09:25.175Z,51.75
2019-02-04T10:12:14.827Z,52.40
2019-02-04T10:15:06.701Z,51.09
2019-02-04T10:17:56.926Z,51.22
2019-02-04T10:20:46.690Z,48.92
2019-02-04T10:23:36.717Z,50.04
2019-02-04T10:26:26.335Z,49.84
2019-02-04T10:29:16.288Z,50.39
2019-02-04T10:32:05.997Z,48.26
2019-02-04T10:34:56.030Z,47.73
2019-02-04T10:37:46.359Z,46.63
2019-02-04T10:40:36.765Z,47.22
2019-02-04T10:43:26.424Z,45.46
2019-02-04T10:46:16.378Z,47.04
2019-02-04T10:49:06.540Z,47.71
2019-02-04T10:51:56.831Z,47.99
2019-02-04T10:54:46.414Z,47.40
2019-02-04T10:57:40.615Z,42.81
2019-02-04T11:00:31.402Z,43.04
2019-02-04T11:03:20.867Z,44.25
2019-02-04T11:06:11.075Z,41.33
2019-02-04T11:09:01.101Z,42.04
2019-02-04T11:11:52.528Z,42.04
2019-02-04T11:14:42.221Z,40.79
2019-02-04T11:17:32.185Z,38.01
2019-02-04T11:20:28.207Z,38.48
2019-02-04T11:23:18.354Z,39.81
2019-02-04T11:26:08.713Z,38.89
2019-02-04T11:28:58.876Z,36.63
2019-02-04T11:31:48.716Z,36.32
2019-02-04T11:34:38.624Z,38.21
2019-02-04T11:37:28.938Z,34.98
2019-02-04T11:40:24.292Z,38.68
2019-02-04T11:43:14.605Z,37.91
2019-02-04T11:46:05.064Z,37.45
2019-02-04T11:48:55.644Z,38.09
2019-02-04T11:51:45.906Z,37.93
2019-02-04T11:54:36.379Z,39.54
2019-02-04T11:57:26.194Z,40.10
2019-02-04T12:00:20.565Z,38.35
2019-02-04T12:03:12.850Z,39.86
2019-02-04T12:06:02.481Z,38.96
2019-02-04T12:08:52.583Z,37.91
2019-02-04T12:11:42.949Z,37.78
2019-02-04T12:14:33.129Z,38.72
2019-02-04T12:17:22.818Z,38.39
2019-02-04T12:20:15.168Z,36.47
2019-02-04T12:23:06.010Z,36.58
2019-02-04T12:25:55.961Z,38.80
2019-02-04T12:28:45.855Z,36.90
2019-02-04T12:31:35.922Z,37.26
2019-02-04T12:34:25.865Z,37.95
2019-02-04T12:37:15.899Z,38.60
2019-02-04T12:40:07.312Z,40.21
2019-02-04T12:42:57.216Z,39.52
2019-02-04T12:45:47.533Z,42.20
2019-02-04T12:48:38.091Z,41.29
2019-02-04T12:51:33.755Z,42.21
2019-02-04T12:54:18.789Z,44.87
2019-02-04T12:57:08.671Z,44.47
2019-02-04T12:59:58.811Z,46.45
2019-02-04T13:02:48.427Z,46.05
2019-02-04T13:05:49.654Z,44.98
2019-02-04T13:08:39.308Z,47.14
2019-02-04T13:11:29.434Z,47.40
2019-02-04T13:14:19.521Z,46.86
2019-02-04T13:17:09.109Z,49.08
2019-02-04T13:19:59.359Z,48.57
2019-02-04T13:22:49.055Z,48.93
2019-02-04T13:25:40.166Z,50.50
2019-02-04T13:28:30.375Z,50.39
2019-02-04T13:31:20.952Z,49.93
2019-02-04T13:34:10.831Z,49.90
2019-02-04T13:37:00.415Z,49.01
2019-02-04T13:39:50.042Z,50.91
2019-02-04T13:42:40.488Z,51.47
2019-02-04T13:45:30.297Z,51.21
2019-02-04T13:48:20.096Z,52.20
2019-02-04T13:51:09.676Z,51.72
2019-02-04T13:53:59.170Z,51.18
2019-02-04T13:56:49.879Z,51.42
2019-02-04T13:59:39.761Z,50.44
2019-02-04T14:02:31.509Z,52.45
2019-02-04T14:05:21.961Z,52.02
2019-02-04T14:08:12.483Z,52.43
2019-02-04T14:11:02.739Z,53.11
2019-02-04T14:13:52.271Z,52.62
2019-02-04T14:16:43.060Z,53.79
2019-02-04T14:19:33.264Z,53.86
2019-02-04T14:22:23.129Z,53.67
2019-02-04T14:25:14.048Z,53.82
2019-02-04T14:28:05.794Z,54.98
2019-02-04T14:30:56.010Z,55.09
2019-02-04T14:33:46.543Z,54.64
2019-02-04T14:36:37.393Z,55.52
2019-02-04T14:39:27.339Z,55.12
2019-02-04T14:42:19.457Z,55.05
2019-02-04T14:45:59.558Z,55.38
2019-02-04T14:49:25.311Z,56.47
2019-02-04T14:53:11.519Z,56.40
2019-02-04T14:56:49.600Z,56.19
2019-02-04T14:59:57.320Z,56.44
2019-02-04T15:03:37.615Z,57.03
2019-02-04T15:07:10.045Z,57.22
2019-02-04T15:10:38.937Z,56.77
2019-02-04T15:14:45.738Z,56.89
2019-02-04T15:18:16.033Z,57.15
2019-02-04T15:22:02.165Z,57.24
2019-02-04T15:25:34.806Z,57.43
2019-02-04T15:28:55.861Z,58.30
2019-02-04T15:32:34.180Z,57.48
2019-02-04T15:36:35.451Z,58.19
2019-02-04T15:39:45.766Z,57.69
2019-02-04T15:43:48.797Z,57.60
2019-02-04T15:47:11.543Z,57.21
2019-02-04T15:51:08.395Z,57.87
2019-02-04T15:54:01.839Z,57.67
2019-02-04T15:56:51.437Z,58.27
2019-02-04T15:59:41.709Z,57.59
2019-02-04T16:02:31.333Z,58.13
2019-02-04T16:05:21.103Z,57.40
2019-02-04T16:08:11.135Z,58.54
2019-02-04T16:11:01.206Z,58.60
2019-02-04T16:13:50.437Z,59.23
2019-02-04T16:16:40.232Z,59.35
2019-02-04T16:19:30.679Z,59.92
2019-02-04T16:22:20.607Z,59.81
2019-02-04T16:25:11.778Z,59.45
2019-02-04T16:28:02.119Z,59.45
2019-02-04T16:30:52.729Z,59.62
2019-02-04T16:33:43.281Z,59.63
2019-02-04T16:36:32.722Z,59.74
2019-02-04T16:39:22.510Z,60.12
2019-02-04T16:42:12.467Z,59.86
2019-02-04T16:45:02.877Z,60.14
2019-02-04T16:47:52.766Z,60.01
2019-02-04T16:50:42.722Z,59.92
2019-02-04T16:53:33.297Z,60.04
2019-02-04T16:56:24.033Z,60.21
2019-02-04T16:59:13.983Z,59.96
2019-02-04T17:02:05.379Z,59.75
2019-02-04T17:04:55.696Z,60.39
2019-02-04T17:07:46.048Z,59.99
2019-02-04T17:10:36.413Z,60.50
2019-02-04T17:13:26.596Z,60.41
2019-02-04T17:16:16.165Z,60.52
2019-02-04T17:19:06.536Z,60.96
2019-02-04T17:21:57.748Z,60.70
2019-02-04T17:24:48.016Z,60.64
2019-02-04T17:27:39.161Z,60.94
2019-02-04T17:30:29.588Z,60.59
2019-02-04T17:33:19.631Z,60.15
2019-02-04T17:36:10.191Z,59.91
2019-02-04T17:39:00.527Z,60.27
2019-02-04T17:41:52.588Z,60.62
2019-02-04T17:44:43.971Z,60.76
2019-02-04T17:47:35.444Z,60.62
2019-02-04T17:50:26.039Z,60.43
2019-02-04T17:53:17.959Z,60.80
2019-02-04T17:56:13.060Z,60.43
2019-02-04T17:59:03.214Z,60.51
2019-02-04T18:01:53.825Z,60.63
2019-02-04T18:04:47.129Z,61.07
2019-02-04T18:07:39.023Z,60.95
2019-02-04T18:10:30.649Z,61.15
2019-02-04T18:13:22.440Z,61.00
2019-02-04T18:16:12.901Z,61.20
2019-02-04T18:19:02.951Z,61.09
2019-02-04T18:21:54.699Z,60.27
2019-02-04T18:24:47.715Z,61.16
2019-02-04T18:27:41.511Z,60.84
2019-02-04T18:30:33.700Z,60.53
2019-02-04T18:33:27.656Z,59.96
2019-02-04T18:36:19.423Z,60.82
2019-02-04T18:39:11.973Z,60.91
2019-02-04T18:42:03.020Z,60.30
2019-02-04T18:44:53.744Z,60.67
2019-02-04T18:47:44.514Z,60.99
2019-02-04T18:50:35.316Z,61.20
2019-02-04T18:53:26.619Z,61.25
2019-02-04T18:56:20.186Z,60.66
2019-02-04T18:59:12.203Z,59.83
2019-02-04T19:02:05.245Z,60.52
2019-02-04T19:04:56.973Z,60.61
2019-02-04T19:07:50.058Z,60.77
2019-02-04T19:10:43.815Z,60.69
2019-02-04T19:13:36.564Z,60.86
2019-02-04T19:16:28.074Z,61.25
2019-02-04T19:19:19.569Z,61.09
2019-02-04T19:22:14.117Z,61.57
2019-02-04T19:25:08.903Z,61.79
2019-02-04T19:28:00.390Z,61.62
2019-02-04T19:31:08.863Z,61.53
2019-02-04T19:34:03.376Z,61.54
2019-02-04T19:36:56.716Z,61.63
2019-02-04T19:39:51.430Z,61.56
2019-02-04T19:42:43.809Z,61.52
2019-02-04T19:45:35.964Z,61.51
2019-02-04T19:48:26.624Z,61.10
2019-02-04T19:51:18.804Z,61.49
2019-02-04T19:54:21.231Z,61.47
2019-02-04T19:57:06.739Z,61.37
2019-02-04T19:59:58.025Z,61.08
2019-02-04T20:02:53.313Z,61.42
2019-02-04T20:05:46.270Z,61.46
2019-02-04T20:08:41.158Z,61.91
2019-02-04T20:11:32.510Z,61.53
2019-02-04T20:14:26.639Z,61.41
2019-02-04T20:17:21.114Z,61.82
2019-02-04T20:20:13.279Z,62.00
2019-02-04T20:23:07.452Z,61.20
2019-02-04T20:26:01.385Z,61.79
2019-02-04T20:28:55.923Z,61.80
2019-02-04T20:31:49.751Z,62.18
2019-02-04T20:34:44.501Z,61.73
2019-02-04T20:37:37.173Z,62.03
2019-02-04T20:40:30.518Z,61.90
2019-02-04T20:43:24.801Z,61.58
2019-02-04T20:46:17.519Z,62.03
2019-02-04T20:49:11.895Z,62.15
2019-02-04T20:52:04.993Z,62.17
2019-02-04T20:54:56.172Z,61.47
2019-02-04T20:57:49.530Z,61.79
2019-02-04T21:00:43.619Z,61.87
2019-02-04T21:03:37.200Z,61.75
2019-02-04T21:06:30.698Z,61.84
2019-02-04T21:09:23.063Z,62.39
2019-02-04T21:12:14.758Z,62.28
2019-02-04T21:15:08.128Z,61.72
2019-02-04T21:17:58.548Z,62.18
2019-02-04T21:20:49.312Z,62.23
2019-02-04T21:23:41.050Z,62.26
2019-02-04T21:26:31.390Z,61.89
2019-02-04T21:29:23.427Z,62.40
2019-02-04T21:32:13.966Z,61.63
2019-02-04T21:35:06.844Z,61.80
2019-02-04T21:37:58.309Z,61.89
2019-02-04T21:40:48.559Z,61.69
2019-02-04T21:43:39.122Z,61.95
2019-02-04T21:46:29.016Z,61.95
2019-02-04T21:49:18.804Z,61.98
2019-02-04T21:52:08.737Z,62.19
2019-02-04T21:55:07.973Z,61.45
2019-02-04T21:57:50.436Z,62.18
2019-02-04T22:00:40.942Z,62.22
2019-02-04T22:03:31.470Z,61.63
2019-02-04T22:06:21.387Z,61.05
2019-02-04T22:09:12.628Z,61.17
2019-02-04T22:12:02.745Z,61.51
2019-02-04T22:14:51.821Z,61.04
2019-02-04T22:17:41.938Z,60.80
2019-02-04T22:20:32.367Z,59.95
2019-02-04T22:23:21.734Z,60.65
2019-02-04T22:26:11.776Z,60.88
2019-02-04T22:29:01.743Z,60.39
2019-02-04T22:31:51.435Z,60.10
2019-02-04T22:34:41.866Z,59.59
2019-02-04T22:37:32.147Z,59.94
2019-02-04T22:40:29.984Z,60.14
2019-02-04T22:43:20.111Z,59.66
2019-02-04T22:46:10.517Z,59.73
2019-02-04T22:49:00.520Z,60.06
2019-02-04T22:51:50.522Z,60.01
2019-02-04T22:54:40.756Z,59.09
2019-02-04T22:57:30.425Z,59.57
2019-02-04T23:01:03.780Z,59.82
2019-02-04T23:03:54.268Z,59.76
2019-02-04T23:06:45.483Z,59.41
2019-02-04T23:09:35.432Z,59.66
2019-02-04T23:12:25.652Z,60.08
2019-02-04T23:15:15.134Z,59.55
2019-02-04T23:18:05.964Z,58.83
2019-02-04T23:20:55.721Z,59.00
2019-02-04T23:23:45.523Z,59.08
2019-02-04T23:26:35.443Z,58.84
2019-02-04T23:29:25.893Z,58.61
2019-02-04T23:32:16.287Z,57.87
2019-02-04T23:35:06.661Z,58.57
2019-02-04T23:37:56.717Z,57.95
2019-02-04T23:40:46.627Z,57.82
2019-02-04T23:43:35.901Z,57.52
2019-02-04T23:46:25.697Z,57.25
2019-02-04T23:49:15.397Z,56.24
2019-02-04T23:52:05.574Z,56.63
2019-02-04T23:54:55.804Z,56.80
2019-02-04T23:57:45.952Z,57.78
